createdAt,value
2018-07-27T00:01:47.698Z,69.63
2018-07-27T00:04:17.460Z,68.79
2018-07-27T00:06:48.198Z,69.16
2018-07-27T00:09:17.630Z,69.34
2018-07-27T00:11:47.554Z,69.56
2018-07-27T00:14:16.969Z,70.45
2018-07-27T00:16:46.988Z,70.31
2018-07-27T00:19:18.146Z,70.68
2018-07-27T00:21:47.484Z,70.48
2018-07-27T00:24:16.944Z,70.08
2018-07-27T00:26:47.810Z,70.60
2018-07-27T00:29:17.811Z,70.78
2018-07-27T00:31:47.196Z,71.43
2018-07-27T00:34:16.557Z,71.27
2018-07-27T00:36:45.978Z,71.30
2018-07-27T00:39:15.942Z,71.57
2018-07-27T00:41:45.321Z,71.93
2018-07-27T00:44:15.613Z,72.15
2018-07-27T00:46:46.806Z,72.06
2018-07-27T00:49:17.613Z,72.47
2018-07-27T00:51:47.452Z,72.42
2018-07-27T00:54:19.258Z,71.87
2018-07-27T00:56:48.617Z,72.06
2018-07-27T00:59:18.134Z,71.95
2018-07-27T01:01:47.478Z,71.57
2018-07-27T01:04:18.091Z,71.80
2018-07-27T01:06:49.068Z,71.75
2018-07-27T01:09:18.446Z,71.02
2018-07-27T01:11:48.941Z,72.14
2018-07-27T01:14:18.331Z,71.63
2018-07-27T01:16:47.721Z,71.82
2018-07-27T01:19:17.153Z,71.65
2018-07-27T01:21:46.553Z,72.11
2018-07-27T01:24:17.148Z,72.35
2018-07-27T01:26:47.097Z,72.15
2018-07-27T01:29:18.433Z,72.32
2018-07-27T01:31:47.981Z,72.90
2018-07-27T01:34:17.484Z,73.31
2018-07-27T01:36:47.297Z,73.30
2018-07-27T01:39:18.404Z,73.47
2018-07-27T01:41:47.850Z,73.39
2018-07-27T01:44:16.932Z,74.06
2018-07-27T01:46:46.312Z,74.03
2018-07-27T01:49:16.106Z,74.02
2018-07-27T01:51:45.785Z,74.41
2018-07-27T01:54:16.142Z,74.30
2018-07-27T01:56:46.430Z,74.96
2018-07-27T01:59:16.374Z,74.58
2018-07-27T02:01:45.822Z,74.91
2018-07-27T02:04:15.205Z,75.60
2018-07-27T02:06:44.607Z,75.87
2018-07-27T02:09:14.157Z,75.62
2018-07-27T02:11:44.064Z,75.17
2018-07-27T02:14:13.465Z,76.21
2018-07-27T02:16:42.820Z,76.21
2018-07-27T02:19:12.256Z,76.46
2018-07-27T02:21:41.673Z,77.04
2018-07-27T02:24:11.068Z,76.76
2018-07-27T02:26:40.454Z,76.78
2018-07-27T02:29:09.870Z,76.50
2018-07-27T02:31:39.258Z,76.89
2018-07-27T02:34:08.694Z,76.54
2018-07-27T02:36:38.060Z,76.59
2018-07-27T02:39:10.266Z,76.21
2018-07-27T02:41:39.726Z,76.93
2018-07-27T02:44:09.750Z,76.77
2018-07-27T02:46:39.277Z,77.61
2018-07-27T02:49:08.601Z,78.07
2018-07-27T02:51:38.103Z,77.30
2018-07-27T02:54:07.722Z,78.73
2018-07-27T02:56:37.194Z,78.63
2018-07-27T02:59:06.600Z,79.17
2018-07-27T03:01:36.143Z,79.21
2018-07-27T03:04:05.624Z,78.91
2018-07-27T03:06:34.950Z,79.26
2018-07-27T03:09:05.794Z,79.72
2018-07-27T03:11:35.257Z,79.24
2018-07-27T03:14:04.859Z,80.44
2018-07-27T03:16:33.987Z,79.64
2018-07-27T03:19:03.381Z,80.10
2018-07-27T03:21:32.754Z,80.53
2018-07-27T03:24:02.238Z,79.71
2018-07-27T03:26:31.713Z,79.33
2018-07-27T03:29:01.331Z,79.60
2018-07-27T03:31:30.698Z,80.57
2018-07-27T03:34:00.019Z,80.66
2018-07-27T03:36:29.658Z,80.49
2018-07-27T03:38:59.122Z,81.25
2018-07-27T03:41:28.497Z,79.83
2018-07-27T03:43:58.359Z,80.67
2018-07-27T03:46:27.733Z,80.06
2018-07-27T03:48:57.140Z,80.34
2018-07-27T03:51:26.491Z,80.87
2018-07-27T03:53:55.953Z,81.42
2018-07-27T03:56:25.342Z,80.88
2018-07-27T03:58:54.849Z,81.44
2018-07-27T04:01:24.316Z,82.14
2018-07-27T04:03:53.680Z,81.81
2018-07-27T04:06:23.064Z,80.88
2018-07-27T04:08:52.479Z,81.22
2018-07-27T04:11:21.858Z,80.77
2018-07-27T04:13:51.638Z,81.25
2018-07-27T04:16:21.090Z,81.57
2018-07-27T04:18:50.502Z,81.74
2018-07-27T04:21:19.870Z,82.10
2018-07-27T04:23:49.318Z,82.97
2018-07-27T04:26:18.768Z,82.60
2018-07-27T04:28:48.218Z,82.00
2018-07-27T04:31:17.569Z,81.78
2018-07-27T04:33:47.048Z,81.30
2018-07-27T04:36:16.405Z,81.43
2018-07-27T04:38:45.830Z,81.31
2018-07-27T04:41:15.409Z,81.46
2018-07-27T04:43:44.838Z,80.76
2018-07-27T04:46:14.413Z,79.40
2018-07-27T04:48:44.117Z,79.64
2018-07-27T04:51:13.510Z,80.11
2018-07-27T04:53:42.884Z,79.66
2018-07-27T04:56:12.282Z,79.91
2018-07-27T04:58:41.626Z,79.75
2018-07-27T05:01:10.992Z,80.57
2018-07-27T05:03:40.382Z,80.07
2018-07-27T05:06:09.799Z,79.53
2018-07-27T05:08:44.329Z,79.83
2018-07-27T05:11:13.727Z,80.16
2018-07-27T05:13:43.098Z,80.30
2018-07-27T05:16:12.450Z,78.99
2018-07-27T05:18:41.802Z,79.07
2018-07-27T05:21:11.167Z,79.85
2018-07-27T05:23:40.563Z,78.75
2018-07-27T05:26:09.685Z,79.17
2018-07-27T05:28:39.074Z,78.16
2018-07-27T05:31:08.229Z,77.88
2018-07-27T05:33:37.613Z,76.29
2018-07-27T05:36:07.221Z,77.26
2018-07-27T05:38:36.575Z,74.40
2018-07-27T05:41:05.826Z,74.89
2018-07-27T05:43:35.232Z,75.04
2018-07-27T05:46:04.676Z,74.02
2018-07-27T05:48:34.110Z,72.04
2018-07-27T05:51:03.516Z,72.80
2018-07-27T05:53:32.874Z,72.15
2018-07-27T05:56:02.217Z,71.14
2018-07-27T05:58:31.612Z,72.24
2018-07-27T06:01:00.726Z,71.11
2018-07-27T06:03:30.078Z,69.60
2018-07-27T06:05:59.398Z,69.71
2018-07-27T06:08:28.757Z,69.37
2018-07-27T06:10:58.186Z,69.44
2018-07-27T06:13:27.579Z,67.70
2018-07-27T06:15:56.982Z,67.70
2018-07-27T06:18:26.344Z,69.21
2018-07-27T06:20:55.798Z,68.70
2018-07-27T06:23:25.199Z,69.01
2018-07-27T06:25:54.679Z,68.10
2018-07-27T06:28:24.119Z,68.17
2018-07-27T06:30:53.474Z,67.53
2018-07-27T06:33:22.821Z,67.83
2018-07-27T06:35:52.185Z,66.67
2018-07-27T06:38:21.556Z,66.89
2018-07-27T06:40:50.910Z,66.47
2018-07-27T06:43:20.895Z,67.28
2018-07-27T06:45:50.270Z,65.81
2018-07-27T06:48:20.517Z,66.22
2018-07-27T06:50:51.350Z,66.81
2018-07-27T06:53:20.783Z,67.12
2018-07-27T06:55:50.146Z,67.27
2018-07-27T06:58:19.549Z,64.77
2018-07-27T07:00:48.969Z,65.41
2018-07-27T07:03:18.091Z,65.28
2018-07-27T07:05:47.489Z,62.46
2018-07-27T07:08:16.878Z,62.84
2018-07-27T07:10:46.244Z,63.14
2018-07-27T07:13:15.682Z,61.26
2018-07-27T07:15:45.058Z,62.36
2018-07-27T07:18:14.433Z,61.56
2018-07-27T07:20:43.859Z,61.47
2018-07-27T07:23:13.233Z,60.59
2018-07-27T07:25:42.761Z,59.37
2018-07-27T07:28:12.098Z,59.37
2018-07-27T07:30:41.444Z,58.84
2018-07-27T07:33:10.885Z,58.82
2018-07-27T07:35:40.543Z,58.76
2018-07-27T07:38:09.939Z,58.76
2018-07-27T07:40:39.296Z,58.77
2018-07-27T07:43:08.658Z,58.40
2018-07-27T07:45:38.086Z,57.94
2018-07-27T07:48:07.494Z,57.47
2018-07-27T07:50:36.906Z,56.06
2018-07-27T07:53:06.595Z,53.94
2018-07-27T07:55:35.952Z,54.17
2018-07-27T07:58:05.342Z,54.09
2018-07-27T08:00:35.257Z,55.32
2018-07-27T08:03:04.777Z,54.41
2018-07-27T08:05:34.182Z,54.31
2018-07-27T08:08:03.270Z,53.41
2018-07-27T08:10:32.705Z,51.76
2018-07-27T08:13:02.050Z,52.90
2018-07-27T08:15:31.434Z,52.10
2018-07-27T08:18:00.829Z,51.66
2018-07-27T08:20:30.251Z,52.51
2018-07-27T08:22:59.655Z,51.92
2018-07-27T08:25:48.426Z,52.05
2018-07-27T08:28:34.823Z,51.50
2018-07-27T08:31:04.253Z,53.87
2018-07-27T08:33:33.778Z,50.17
2018-07-27T08:36:03.241Z,52.23
2018-07-27T08:38:32.647Z,48.91
2018-07-27T08:41:02.138Z,50.26
2018-07-27T08:43:31.534Z,50.53
2018-07-27T08:46:00.999Z,51.45
2018-07-27T08:48:30.501Z,51.43
2018-07-27T08:51:00.911Z,50.66
2018-07-27T08:53:30.254Z,50.32
2018-07-27T08:55:59.698Z,49.00
2018-07-27T08:58:28.805Z,50.56
2018-07-27T09:00:58.259Z,47.12
2018-07-27T09:03:27.698Z,48.42
2018-07-27T09:05:57.124Z,46.55
2018-07-27T09:08:26.530Z,47.97
2018-07-27T09:10:55.985Z,48.41
2018-07-27T09:13:25.797Z,47.42
2018-07-27T09:15:55.573Z,47.38
2018-07-27T09:18:25.205Z,47.86
2018-07-27T09:20:54.776Z,45.13
2018-07-27T09:23:24.441Z,48.05
2018-07-27T09:25:53.905Z,46.29
2018-07-27T09:28:23.222Z,47.68
2018-07-27T09:30:52.807Z,47.27
2018-07-27T09:33:22.365Z,44.98
2018-07-27T09:35:51.986Z,45.55
2018-07-27T09:38:21.402Z,45.22
2018-07-27T09:40:50.819Z,46.65
2018-07-27T09:43:20.578Z,46.16
2018-07-27T09:45:50.169Z,46.41
2018-07-27T09:48:19.632Z,46.23
2018-07-27T09:50:49.073Z,46.19
2018-07-27T09:53:18.472Z,45.21
2018-07-27T09:55:48.452Z,45.02
2018-07-27T09:58:17.897Z,43.59
2018-07-27T10:00:52.564Z,44.66
2018-07-27T10:03:22.128Z,43.41
2018-07-27T10:05:51.523Z,44.74
2018-07-27T10:08:20.922Z,43.13
2018-07-27T10:10:50.306Z,41.97
2018-07-27T10:13:20.381Z,42.36
2018-07-27T10:15:49.725Z,41.53
2018-07-27T10:18:19.838Z,41.84
2018-07-27T10:20:49.478Z,43.74
2018-07-27T10:23:18.809Z,42.59
2018-07-27T10:25:48.221Z,43.20
2018-07-27T10:28:18.015Z,42.56
2018-07-27T10:30:47.753Z,42.64
2018-07-27T10:33:20.760Z,43.19
2018-07-27T10:35:50.243Z,41.97
2018-07-27T10:38:20.122Z,42.73
2018-07-27T10:40:49.530Z,40.38
2018-07-27T10:43:19.418Z,41.30
2018-07-27T10:45:48.788Z,42.50
2018-07-27T10:48:18.081Z,41.13
2018-07-27T10:50:48.017Z,42.15
2018-07-27T10:53:17.433Z,41.17
2018-07-27T10:55:46.857Z,41.39
2018-07-27T10:58:16.899Z,41.48
2018-07-27T11:00:46.302Z,40.81
2018-07-27T11:03:17.067Z,40.95
2018-07-27T11:05:46.413Z,40.57
2018-07-27T11:08:15.960Z,40.41
2018-07-27T11:10:45.325Z,40.16
2018-07-27T11:13:14.763Z,40.89
2018-07-27T11:15:44.153Z,37.82
2018-07-27T11:18:13.545Z,37.92
2018-07-27T11:20:42.878Z,39.33
2018-07-27T11:23:12.474Z,38.26
2018-07-27T11:25:41.940Z,40.12
2018-07-27T11:28:11.246Z,39.91
2018-07-27T11:30:40.665Z,40.41
2018-07-27T11:33:10.086Z,40.39
2018-07-27T11:35:39.522Z,39.97
2018-07-27T11:38:08.981Z,40.19
2018-07-27T11:40:38.415Z,38.44
2018-07-27T11:43:07.905Z,39.05
2018-07-27T11:45:37.281Z,40.31
2018-07-27T11:48:06.712Z,37.87
2018-07-27T11:50:36.126Z,37.93
2018-07-27T11:53:05.550Z,38.32
2018-07-27T11:55:34.889Z,36.66
2018-07-27T11:58:04.357Z,37.23
2018-07-27T12:00:33.750Z,37.74
2018-07-27T12:03:03.414Z,36.78
2018-07-27T12:05:32.817Z,36.57
2018-07-27T12:08:02.186Z,35.64
2018-07-27T12:10:31.577Z,35.63
2018-07-27T12:13:01.049Z,34.56
2018-07-27T12:15:30.197Z,36.25
2018-07-27T12:17:59.607Z,36.02
2018-07-27T12:20:29.170Z,35.91
2018-07-27T12:22:58.602Z,34.62
2018-07-27T12:25:28.081Z,35.97
2018-07-27T12:27:58.166Z,37.29
2018-07-27T12:30:27.555Z,39.37
2018-07-27T12:32:57.945Z,37.54
2018-07-27T12:35:27.425Z,37.23
2018-07-27T12:37:57.082Z,36.97
2018-07-27T12:40:27.999Z,35.77
2018-07-27T12:42:57.714Z,33.50
2018-07-27T12:45:28.587Z,35.38
2018-07-27T12:47:58.178Z,32.94
2018-07-27T12:50:27.546Z,33.72
2018-07-27T12:52:57.937Z,33.28
2018-07-27T12:55:27.718Z,36.04
2018-07-27T12:57:57.145Z,35.39
2018-07-27T13:00:27.076Z,31.59
2018-07-27T13:02:56.822Z,33.33
2018-07-27T13:05:26.182Z,36.06
2018-07-27T13:07:55.644Z,37.27
2018-07-27T13:10:25.542Z,38.32
2018-07-27T13:12:55.595Z,35.59
2018-07-27T13:15:26.118Z,33.95
2018-07-27T13:17:56.038Z,31.65
2018-07-27T13:20:32.865Z,32.74
2018-07-27T13:23:02.323Z,32.71
2018-07-27T13:25:31.749Z,31.36
2018-07-27T13:28:03.190Z,31.64
2018-07-27T13:30:32.576Z,32.93
2018-07-27T13:33:02.811Z,32.75
2018-07-27T13:38:02.208Z,32.11
2018-07-27T13:40:32.159Z,30.73
2018-07-27T13:43:03.053Z,30.38
2018-07-27T13:45:32.690Z,29.50
2018-07-27T13:48:02.553Z,32.33
2018-07-27T13:50:32.010Z,31.51
2018-07-27T13:53:02.741Z,33.08
2018-07-27T13:55:32.474Z,34.14
2018-07-27T13:58:02.876Z,32.83
2018-07-27T14:00:32.391Z,35.05
2018-07-27T14:03:01.910Z,33.15
2018-07-27T14:05:31.969Z,33.85
2018-07-27T14:08:01.835Z,34.04
2018-07-27T14:10:31.481Z,31.81
2018-07-27T14:13:01.974Z,33.45
2018-07-27T14:15:31.797Z,31.61
2018-07-27T14:18:01.010Z,30.86
2018-07-27T14:20:31.219Z,33.81
2018-07-27T14:23:00.394Z,33.29
2018-07-27T14:25:30.318Z,31.18
2018-07-27T14:27:59.686Z,32.70
2018-07-27T14:30:29.062Z,33.49
2018-07-27T14:32:58.419Z,32.70
2018-07-27T14:35:27.857Z,33.10
2018-07-27T14:37:57.792Z,33.69
2018-07-27T14:40:27.237Z,32.51
2018-07-27T14:42:56.658Z,32.42
2018-07-27T14:45:26.078Z,33.08
2018-07-27T14:47:55.570Z,33.66
2018-07-27T14:50:24.973Z,32.39
2018-07-27T14:52:54.376Z,34.00
2018-07-27T14:55:23.761Z,34.20
2018-07-27T14:57:53.153Z,34.02
2018-07-27T15:00:22.582Z,33.84
2018-07-27T15:02:52.070Z,33.59
2018-07-27T15:05:21.505Z,33.89
2018-07-27T15:07:50.934Z,32.84
2018-07-27T15:10:20.380Z,35.87
2018-07-27T15:12:49.817Z,33.89
2018-07-27T15:15:19.207Z,34.18
2018-07-27T15:17:48.879Z,35.22
2018-07-27T15:20:18.270Z,34.90
2018-07-27T15:22:47.722Z,35.58
2018-07-27T15:25:17.167Z,35.50
2018-07-27T15:27:47.589Z,35.10
2018-07-27T15:30:17.347Z,35.34
2018-07-27T15:32:46.830Z,34.87
2018-07-27T15:35:16.278Z,35.42
2018-07-27T15:37:45.795Z,36.31
2018-07-27T15:40:15.401Z,35.86
2018-07-27T15:42:44.846Z,35.75
2018-07-27T15:45:14.277Z,35.74
2018-07-27T15:47:43.702Z,36.11
2018-07-27T15:50:13.138Z,36.18
2018-07-27T15:52:42.509Z,36.82
2018-07-27T15:55:11.902Z,36.23
2018-07-27T15:57:41.465Z,35.78
2018-07-27T16:00:11.254Z,37.08
2018-07-27T16:02:40.659Z,36.85
2018-07-27T16:05:10.037Z,36.35
2018-07-27T16:07:39.446Z,36.86
2018-07-27T16:10:09.098Z,36.60
2018-07-27T16:12:38.514Z,37.41
2018-07-27T16:15:08.130Z,38.99
2018-07-27T16:17:37.563Z,38.02
2018-07-27T16:20:06.818Z,39.96
2018-07-27T16:22:37.793Z,38.79
2018-07-27T16:25:07.434Z,39.99
2018-07-27T16:27:37.061Z,39.51
2018-07-27T16:30:07.214Z,40.12
2018-07-27T16:32:36.881Z,40.42
2018-07-27T16:35:06.394Z,39.69
2018-07-27T16:37:35.897Z,39.66
2018-07-27T16:40:05.897Z,40.86
2018-07-27T16:42:35.335Z,40.72
2018-07-27T16:45:04.853Z,42.04
2018-07-27T16:47:34.230Z,43.12
2018-07-27T16:50:03.714Z,42.71
2018-07-27T16:52:33.150Z,42.15
2018-07-27T16:55:02.511Z,43.29
2018-07-27T16:57:31.871Z,42.52
2018-07-27T17:00:01.345Z,42.37
2018-07-27T17:02:30.722Z,43.52
2018-07-27T17:05:00.088Z,41.80
2018-07-27T17:07:29.461Z,41.40
2018-07-27T17:09:59.182Z,43.21
2018-07-27T17:12:28.669Z,43.33
2018-07-27T17:14:58.066Z,43.25
2018-07-27T17:17:27.431Z,43.14
2018-07-27T17:19:56.934Z,43.92
2018-07-27T17:22:26.237Z,44.81
2018-07-27T17:24:55.813Z,46.05
2018-07-27T17:27:24.992Z,47.17
2018-07-27T17:29:54.343Z,47.19
2018-07-27T17:32:23.735Z,48.72
2018-07-27T17:34:53.141Z,47.46
2018-07-27T17:37:22.581Z,49.60
2018-07-27T17:39:51.717Z,50.22
2018-07-27T17:42:21.077Z,49.57
2018-07-27T17:44:50.216Z,50.62
2018-07-27T17:47:19.593Z,51.70
2018-07-27T17:49:49.137Z,51.18
2018-07-27T17:52:18.521Z,51.50
2018-07-27T17:54:48.088Z,51.63
2018-07-27T17:57:17.437Z,52.18
2018-07-27T17:59:47.018Z,52.21
2018-07-27T18:02:16.558Z,51.45
2018-07-27T18:04:45.954Z,53.12
2018-07-27T18:07:15.587Z,52.85
2018-07-27T18:09:44.849Z,52.95
2018-07-27T18:12:14.260Z,53.21
2018-07-27T18:14:43.655Z,53.34
2018-07-27T18:17:13.068Z,53.89
2018-07-27T18:19:42.394Z,53.90
2018-07-27T18:22:11.917Z,54.15
2018-07-27T18:24:41.493Z,53.78
2018-07-27T18:27:10.960Z,54.01
2018-07-27T18:29:40.717Z,55.59
2018-07-27T18:32:10.174Z,54.99
2018-07-27T18:34:39.578Z,55.59
2018-07-27T18:37:08.974Z,56.31
2018-07-27T18:39:38.448Z,56.83
2018-07-27T18:42:08.118Z,56.13
2018-07-27T18:44:37.927Z,56.27
2018-07-27T18:47:07.369Z,57.30
2018-07-27T18:49:36.875Z,57.09
2018-07-27T18:52:06.334Z,57.78
2018-07-27T18:54:35.780Z,57.12
2018-07-27T18:57:05.610Z,57.65
2018-07-27T18:59:34.951Z,57.79
2018-07-27T19:02:04.520Z,58.25
2018-07-27T19:04:33.602Z,57.65
2018-07-27T19:07:02.996Z,58.61
2018-07-27T19:09:32.403Z,58.15
2018-07-27T19:12:01.754Z,59.05
2018-07-27T19:14:31.166Z,59.38
2018-07-27T19:17:00.585Z,58.64
2018-07-27T19:19:30.034Z,58.95
2018-07-27T19:21:59.546Z,59.56
2018-07-27T19:24:29.034Z,59.71
2018-07-27T19:26:58.548Z,60.27
2018-07-27T19:29:27.921Z,60.48
2018-07-27T19:31:57.453Z,59.67
2018-07-27T19:34:26.926Z,59.49
2018-07-27T19:36:56.326Z,60.69
2018-07-27T19:39:25.677Z,61.00
2018-07-27T19:41:54.844Z,60.82
2018-07-27T19:44:24.228Z,60.17
2018-07-27T19:46:53.789Z,61.03
2018-07-27T19:49:23.143Z,60.69
2018-07-27T19:51:52.643Z,60.41
2018-07-27T19:54:22.199Z,61.21
2018-07-27T19:56:51.566Z,60.41
2018-07-27T19:59:20.982Z,60.38
2018-07-27T20:01:50.351Z,60.07
2018-07-27T20:04:19.766Z,59.76
2018-07-27T20:06:49.177Z,60.00
2018-07-27T20:09:18.558Z,60.27
2018-07-27T20:11:47.980Z,60.83
2018-07-27T20:14:17.369Z,60.51
2018-07-27T20:16:46.732Z,59.83
2018-07-27T20:19:16.101Z,60.24
2018-07-27T20:21:45.606Z,59.54
2018-07-27T20:24:14.994Z,59.15
2018-07-27T20:26:44.395Z,59.15
2018-07-27T20:29:13.856Z,58.50
2018-07-27T20:31:43.259Z,58.15
2018-07-27T20:34:12.634Z,57.77
2018-07-27T20:36:42.095Z,57.54
2018-07-27T20:39:13.321Z,57.47
2018-07-27T20:41:43.405Z,57.99
2018-07-27T20:44:13.186Z,58.03
2018-07-27T20:46:42.561Z,57.49
2018-07-27T20:49:11.731Z,56.84
2018-07-27T20:51:41.066Z,57.04
2018-07-27T20:54:10.822Z,56.93
2018-07-27T20:56:40.878Z,56.54
2018-07-27T20:59:10.337Z,57.06
2018-07-27T21:01:39.794Z,57.09
2018-07-27T21:04:09.929Z,57.27
2018-07-27T21:06:39.293Z,57.08
2018-07-27T21:09:10.382Z,56.57
2018-07-27T21:11:40.175Z,56.58
2018-07-27T21:14:09.841Z,56.84
2018-07-27T21:16:39.362Z,57.08
2018-07-27T21:19:08.894Z,56.92
2018-07-27T21:21:38.409Z,56.93
2018-07-27T21:24:09.125Z,58.16
2018-07-27T21:26:38.627Z,57.71
2018-07-27T21:29:08.154Z,57.32
2018-07-27T21:31:37.659Z,57.33
2018-07-27T21:34:07.029Z,58.01
2018-07-27T21:36:36.467Z,57.84
2018-07-27T21:39:09.267Z,57.46
2018-07-27T21:41:38.691Z,58.31
2018-07-27T21:44:08.121Z,58.33
2018-07-27T21:46:37.549Z,58.10
2018-07-27T21:49:07.159Z,59.29
2018-07-27T21:51:37.349Z,58.27
2018-07-27T21:54:06.823Z,58.77
2018-07-27T21:56:36.199Z,59.04
2018-07-27T21:59:05.781Z,58.98
2018-07-27T22:01:35.321Z,59.22
2018-07-27T22:04:04.827Z,59.22
2018-07-27T22:06:34.251Z,60.25
2018-07-27T22:09:04.272Z,59.61
2018-07-27T22:11:33.743Z,60.17
2018-07-27T22:14:03.354Z,60.25
2018-07-27T22:16:32.886Z,59.89
2018-07-27T22:19:02.263Z,60.35
2018-07-27T22:21:32.095Z,61.29
2018-07-27T22:24:01.694Z,60.77
2018-07-27T22:26:31.134Z,60.93
2018-07-27T22:29:00.729Z,61.25
2018-07-27T22:31:30.152Z,61.18
2018-07-27T22:33:59.540Z,61.37
2018-07-27T22:36:28.996Z,61.87
2018-07-27T22:38:58.736Z,61.96
2018-07-27T22:43:56.617Z,61.71
2018-07-27T22:46:26.125Z,62.12
2018-07-27T22:48:55.616Z,62.57
2018-07-27T22:51:25.555Z,62.58
2018-07-27T22:53:54.927Z,62.46
2018-07-27T22:56:24.347Z,63.02
2018-07-27T22:58:53.814Z,62.83
2018-07-27T23:01:23.194Z,63.16
2018-07-27T23:03:52.627Z,63.69
2018-07-27T23:06:21.988Z,64.19
2018-07-27T23:08:51.391Z,64.76
2018-07-27T23:11:21.410Z,64.66
2018-07-27T23:13:50.991Z,65.20
2018-07-27T23:16:20.372Z,65.01
2018-07-27T23:18:50.130Z,65.64
2018-07-27T23:21:19.467Z,65.31
2018-07-27T23:23:48.871Z,65.91
2018-07-27T23:26:18.323Z,66.23
2018-07-27T23:28:47.713Z,66.15
2018-07-27T23:31:17.093Z,66.52
2018-07-27T23:33:46.489Z,66.18
2018-07-27T23:36:16.031Z,66.43
2018-07-27T23:38:45.705Z,67.09
2018-07-27T23:41:15.121Z,67.39
2018-07-27T23:43:45.481Z,66.95
2018-07-27T23:46:14.870Z,67.53
2018-07-27T23:48:44.385Z,67.44
2018-07-27T23:51:13.895Z,68.08
2018-07-27T23:53:43.302Z,68.55
2018-07-27T23:56:12.622Z,69.33
2018-07-27T23:58:42.030Z,69.47
